createdAt,value
2019-02-15T00:05:36.438Z,4.87
2019-02-15T00:15:41.873Z,6.17
2019-02-15T00:25:47.010Z,5.30
2019-02-15T00:35:52.184Z,4.70
2019-02-15T00:46:08.671Z,4.40
2019-02-15T00:56:35.583Z,5.70
2019-02-15T01:07:08.815Z,5.50
2019-02-15T01:17:14.601Z,7.43
2019-02-15T01:27:35.359Z,4.97
2019-02-15T01:37:59.473Z,4.50
2019-02-15T01:48:04.861Z,5.07
2019-02-15T01:58:09.998Z,4.80
2019-02-15T04:05:15.031Z,6.20
2019-02-15T04:15:20.222Z,4.53
2019-02-15T04:25:25.319Z,5.03
2019-02-15T04:35:30.500Z,4.13
2019-02-15T04:45:35.646Z,4.10
2019-02-15T04:55:40.788Z,4.60
2019-02-15T05:05:47.571Z,4.90
2019-02-15T05:15:53.073Z,4.73
2019-02-15T05:25:58.198Z,5.50
2019-02-15T05:36:03.356Z,4.50
2019-02-15T05:46:08.626Z,5.20
2019-02-15T05:56:13.756Z,4.40
2019-02-15T06:06:18.894Z,5.43
2019-02-15T06:16:24.034Z,4.13
2019-02-15T06:26:29.171Z,7.57
2019-02-15T06:36:36.806Z,4.53
2019-02-15T06:46:42.381Z,4.50
2019-02-15T06:56:47.525Z,4.30
2019-02-15T07:06:53.188Z,4.00
2019-02-15T07:16:58.328Z,4.00
2019-02-15T07:27:03.597Z,5.10
2019-02-15T07:37:08.764Z,3.90
2019-02-15T07:47:13.913Z,7.13
2019-02-15T07:57:19.064Z,5.43
2019-02-15T08:07:24.204Z,6.83
2019-02-15T08:17:29.359Z,5.77
2019-02-15T08:27:34.571Z,6.60
2019-02-15T08:37:39.865Z,5.87
2019-02-15T08:47:45.012Z,5.20
2019-02-15T08:57:51.235Z,5.33
2019-02-15T09:07:56.415Z,5.60
2019-02-15T09:18:01.570Z,5.77
2019-02-15T09:28:25.673Z,5.40
2019-02-15T09:38:30.872Z,5.60
2019-02-15T09:48:36.034Z,5.20
2019-02-15T09:58:41.184Z,5.37
2019-02-15T10:08:46.347Z,5.07
2019-02-15T10:18:51.496Z,4.77
2019-02-15T10:28:56.653Z,4.97
2019-02-15T10:39:01.823Z,4.80
2019-02-15T10:49:08.607Z,4.33
2019-02-15T10:59:13.791Z,4.93
2019-02-15T11:09:18.945Z,5.10
2019-02-15T11:19:24.106Z,4.70
2019-02-15T11:29:29.257Z,5.53
2019-02-15T11:39:34.434Z,4.70
2019-02-15T11:49:39.588Z,4.77
2019-02-15T11:59:44.738Z,4.20
2019-02-15T12:09:49.880Z,4.43
2019-02-15T12:19:55.027Z,4.47
2019-02-15T12:30:00.393Z,4.93
2019-02-15T12:40:06.182Z,4.53
2019-02-15T12:50:14.572Z,4.93
2019-02-15T13:00:19.918Z,4.70
2019-02-15T13:10:26.827Z,12.70
2019-02-15T13:20:32.247Z,21.10
2019-02-15T13:30:37.419Z,17.17
2019-02-15T13:40:42.644Z,12.70
2019-02-15T13:50:47.804Z,11.30
2019-02-15T14:00:53.053Z,13.90
2019-02-15T14:10:58.197Z,8.67
2019-02-15T14:21:03.362Z,7.83
2019-02-15T14:31:08.528Z,8.33
2019-02-15T14:41:13.670Z,7.80
2019-02-15T14:51:19.054Z,8.83
2019-02-15T15:01:24.616Z,7.00
2019-02-15T15:11:29.755Z,6.43
2019-02-15T15:21:35.111Z,6.17
2019-02-15T15:31:41.393Z,8.03
2019-02-15T15:41:46.692Z,6.60
2019-02-15T15:51:51.839Z,6.03
2019-02-15T16:01:56.980Z,6.27
2019-02-15T16:12:02.139Z,7.83
2019-02-15T16:22:07.344Z,6.47
2019-02-15T16:32:12.592Z,5.97
2019-02-15T16:42:17.741Z,5.43
2019-02-15T16:52:24.422Z,7.60
2019-02-15T17:02:29.566Z,6.20
2019-02-15T17:12:34.706Z,6.73
2019-02-15T17:22:39.840Z,7.17
2019-02-15T17:32:45.003Z,6.73
2019-02-15T17:42:50.151Z,5.30
2019-02-15T17:52:55.288Z,6.37
2019-02-15T18:03:00.436Z,6.43
2019-02-15T18:13:05.571Z,6.30
2019-02-15T18:23:10.743Z,6.03
2019-02-15T18:33:16.968Z,5.80
2019-02-15T18:43:22.108Z,6.47
2019-02-15T18:53:27.321Z,6.20
2019-02-15T19:03:32.462Z,6.30
2019-02-15T19:13:37.594Z,5.93
2019-02-15T19:23:42.732Z,5.57
2019-02-15T19:33:48.082Z,5.83
2019-02-15T19:43:53.314Z,6.00
2019-02-15T19:53:58.448Z,5.60
2019-02-15T20:04:03.647Z,6.47
2019-02-15T20:14:08.793Z,5.93
2019-02-15T20:24:14.000Z,4.50
2019-02-15T20:34:19.172Z,5.23
2019-02-15T20:44:24.308Z,5.03
2019-02-15T20:54:29.560Z,5.10
2019-02-15T21:04:34.701Z,4.77
2019-02-15T21:14:39.886Z,4.87
2019-02-15T21:24:45.047Z,5.10
2019-02-15T21:34:50.253Z,5.27
2019-02-15T21:44:55.437Z,5.20
2019-02-15T21:55:00.567Z,4.57
2019-02-15T22:05:05.986Z,4.77
2019-02-15T22:15:12.052Z,5.40
2019-02-15T22:25:18.151Z,6.80
2019-02-15T22:35:23.609Z,5.23
2019-02-15T22:45:31.869Z,5.80
2019-02-15T22:55:37.009Z,4.80
2019-02-15T23:05:42.461Z,4.73
2019-02-15T23:15:47.743Z,5.47
2019-02-15T23:25:53.130Z,5.00
2019-02-15T23:35:58.313Z,5.10
2019-02-15T23:46:03.705Z,4.80
2019-02-15T23:56:08.840Z,5.40
